createdAt,value
2023-01-19T00:01:41.349Z,27.30
2023-01-19T00:04:28.080Z,29.40
2023-01-19T00:07:16.671Z,25.25
2023-01-19T00:10:03.811Z,28.20
2023-01-19T00:12:50.559Z,25.35
2023-01-19T00:15:37.363Z,21.10
2023-01-19T00:18:25.271Z,22.87
2023-01-19T00:21:14.800Z,24.55
2023-01-19T00:24:01.643Z,21.30
2023-01-19T00:26:48.372Z,24.13
2023-01-19T00:29:36.216Z,22.73
2023-01-19T00:32:22.950Z,24.65
2023-01-19T00:35:09.931Z,24.38
2023-01-19T00:37:58.101Z,25.73
2023-01-19T00:40:45.884Z,25.80
2023-01-19T00:43:32.671Z,21.02
2023-01-19T00:46:19.395Z,22.17
2023-01-19T00:49:06.473Z,23.67
2023-01-19T00:51:54.183Z,27.25
2023-01-19T00:57:29.631Z,25.27
2023-01-19T01:00:19.880Z,26.25
2023-01-19T01:03:07.796Z,29.98
2023-01-19T01:05:54.594Z,26.48
2023-01-19T01:08:41.440Z,20.42
2023-01-19T01:11:28.194Z,19.05
2023-01-19T01:14:15.986Z,20.83
2023-01-19T01:17:02.722Z,21.10
2023-01-19T01:19:49.535Z,18.98
2023-01-19T01:22:36.311Z,21.40
2023-01-19T01:25:26.293Z,26.30
2023-01-19T01:28:13.144Z,30.90
2023-01-19T01:30:59.913Z,27.90
2023-01-19T01:33:46.596Z,23.70
2023-01-19T01:36:34.355Z,25.10
2023-01-19T01:39:22.344Z,25.58
2023-01-19T01:42:18.304Z,24.02
2023-01-19T01:45:22.795Z,26.15
2023-01-19T01:48:28.159Z,31.27
2023-01-19T01:51:41.163Z,23.65
2023-01-19T01:54:32.172Z,21.90
2023-01-19T01:57:19.412Z,21.90
2023-01-19T02:03:11.767Z,32.35
2023-01-19T02:06:01.581Z,25.27
2023-01-19T02:09:20.844Z,30.05
2023-01-19T02:15:18.999Z,25.60
2023-01-19T02:18:05.986Z,29.48
2023-01-19T02:21:04.651Z,29.67
2023-01-19T02:23:57.250Z,32.17
2023-01-19T02:26:47.022Z,27.67
2023-01-19T02:29:34.715Z,30.42
2023-01-19T02:32:21.454Z,39.13
2023-01-19T02:35:09.438Z,32.35
2023-01-19T02:37:57.387Z,35.72
2023-01-19T02:40:45.037Z,28.95
2023-01-19T02:43:33.079Z,24.00
2023-01-19T02:46:20.864Z,28.52
2023-01-19T02:49:07.801Z,26.90
2023-01-19T02:55:20.429Z,25.95
2023-01-19T02:58:19.143Z,27.45
2023-01-19T03:01:24.866Z,25.52
2023-01-19T03:04:44.315Z,28.15
2023-01-19T03:07:41.815Z,34.85
2023-01-19T03:10:53.767Z,29.52
2023-01-19T03:13:56.169Z,32.63
2023-01-19T03:16:44.182Z,31.83
2023-01-19T03:19:43.203Z,32.90
2023-01-19T03:22:30.932Z,32.60
2023-01-19T03:25:19.827Z,29.52
2023-01-19T03:28:06.814Z,29.25
2023-01-19T03:31:03.465Z,23.33
2023-01-19T03:33:55.964Z,23.98
2023-01-19T03:36:51.437Z,24.95
2023-01-19T03:39:38.225Z,23.05
2023-01-19T03:42:27.257Z,23.85
2023-01-19T03:45:16.038Z,26.75
2023-01-19T03:48:03.787Z,25.38
2023-01-19T03:50:51.979Z,22.65
2023-01-19T03:53:38.870Z,21.90
2023-01-19T03:56:26.896Z,23.13
2023-01-19T03:59:17.554Z,20.45
2023-01-19T04:02:04.361Z,19.55
2023-01-19T04:04:51.343Z,21.20
2023-01-19T04:07:38.977Z,21.35
2023-01-19T04:10:25.866Z,22.48
2023-01-19T04:13:12.590Z,18.95
2023-01-19T04:16:01.126Z,20.00
2023-01-19T04:18:49.281Z,13.80
2023-01-19T04:21:36.040Z,22.50
2023-01-19T04:24:22.836Z,23.40
2023-01-19T04:27:09.531Z,19.55
2023-01-19T04:29:57.309Z,19.23
2023-01-19T04:32:44.232Z,15.98
2023-01-19T04:35:31.143Z,18.83
2023-01-19T04:38:17.854Z,16.45
2023-01-19T04:41:04.908Z,17.40
2023-01-19T04:43:51.667Z,16.58
2023-01-19T04:46:38.551Z,17.30
2023-01-19T04:49:25.369Z,11.88
2023-01-19T04:52:12.163Z,15.65
2023-01-19T04:54:58.803Z,11.82
2023-01-19T04:57:45.982Z,15.53
2023-01-19T05:00:33.608Z,11.60
2023-01-19T05:03:20.784Z,14.95
2023-01-19T05:06:07.734Z,16.33
2023-01-19T05:08:54.551Z,16.50
2023-01-19T05:11:41.691Z,15.88
2023-01-19T05:14:28.432Z,16.48
2023-01-19T05:17:15.171Z,17.85
2023-01-19T05:20:03.679Z,15.20
2023-01-19T05:22:52.197Z,16.98
2023-01-19T05:25:38.969Z,16.08
2023-01-19T05:28:25.652Z,15.13
2023-01-19T05:31:12.462Z,14.02
2023-01-19T05:33:59.199Z,16.00
2023-01-19T05:36:46.000Z,14.20
2023-01-19T05:39:33.451Z,13.65
2023-01-19T05:42:20.447Z,15.50
2023-01-19T05:45:07.827Z,17.83
2023-01-19T05:47:55.298Z,15.90
2023-01-19T05:53:29.085Z,15.07
2023-01-19T05:56:15.912Z,12.82
2023-01-19T05:59:02.688Z,17.40
2023-01-19T06:01:53.035Z,14.57
2023-01-19T06:04:39.840Z,15.07
2023-01-19T06:07:29.040Z,18.05
2023-01-19T06:10:16.374Z,20.63
2023-01-19T06:13:03.488Z,24.10
2023-01-19T06:15:57.348Z,30.20
2023-01-19T06:18:44.126Z,27.63
2023-01-19T06:21:31.502Z,39.92
2023-01-19T06:24:19.083Z,58.65
2023-01-19T06:29:53.242Z,48.47
2023-01-19T06:32:40.091Z,54.45
2023-01-19T06:35:27.320Z,57.25
2023-01-19T06:38:14.357Z,72.60
2023-01-19T06:41:04.792Z,74.55
2023-01-19T06:43:51.516Z,62.10
2023-01-19T06:46:38.359Z,53.13
2023-01-19T06:49:25.174Z,40.42
2023-01-19T06:52:15.808Z,31.17
2023-01-19T06:55:02.621Z,25.30
2023-01-19T06:57:55.571Z,32.08
2023-01-19T07:00:43.128Z,24.98
2023-01-19T07:03:30.535Z,37.28
2023-01-19T07:06:17.547Z,35.40
2023-01-19T07:09:07.878Z,28.75
2023-01-19T07:11:55.269Z,30.35
2023-01-19T07:17:28.803Z,27.90
2023-01-19T07:20:15.835Z,27.33
2023-01-19T07:23:03.326Z,23.42
2023-01-19T07:25:50.179Z,25.35
2023-01-19T07:28:37.279Z,22.15
2023-01-19T07:31:24.287Z,23.25
2023-01-19T07:34:12.543Z,30.33
2023-01-19T07:36:59.350Z,35.42
2023-01-19T07:39:46.075Z,28.98
2023-01-19T07:42:32.867Z,31.63
2023-01-19T07:45:20.929Z,32.88
2023-01-19T07:48:07.842Z,35.95
2023-01-19T07:50:59.907Z,33.65
2023-01-19T07:53:47.072Z,30.05
2023-01-19T07:56:34.164Z,27.90
2023-01-19T07:59:21.404Z,29.60
2023-01-19T08:02:10.461Z,30.45
2023-01-19T08:04:57.294Z,30.33
2023-01-19T08:07:45.251Z,24.70
2023-01-19T08:10:31.966Z,24.02
2023-01-19T08:13:18.928Z,20.58
2023-01-19T08:16:06.198Z,18.17
2023-01-19T08:18:53.075Z,16.10
2023-01-19T08:21:39.946Z,17.30
2023-01-19T08:24:28.620Z,15.00
2023-01-19T08:27:15.403Z,17.35
2023-01-19T08:30:02.108Z,15.75
2023-01-19T08:32:48.797Z,12.60
2023-01-19T08:35:41.261Z,17.43
2023-01-19T08:38:27.969Z,19.85
2023-01-19T08:41:16.977Z,21.65
2023-01-19T08:44:03.953Z,18.20
2023-01-19T08:46:50.789Z,16.38
2023-01-19T08:49:37.486Z,14.07
2023-01-19T08:52:26.763Z,15.27
2023-01-19T08:55:13.494Z,15.65
2023-01-19T08:58:01.567Z,11.43
2023-01-19T09:00:48.912Z,13.02
2023-01-19T09:06:25.171Z,16.70
2023-01-19T09:09:12.004Z,14.85
2023-01-19T09:11:58.798Z,16.40
2023-01-19T09:14:45.600Z,18.40
2023-01-19T09:17:32.328Z,20.57
2023-01-19T09:20:19.105Z,20.20
2023-01-19T09:23:06.305Z,18.13
2023-01-19T09:25:58.162Z,16.70
2023-01-19T09:28:44.941Z,18.65
2023-01-19T09:31:31.719Z,23.10
2023-01-19T09:34:18.626Z,22.83
2023-01-19T09:37:05.490Z,20.77
2023-01-19T09:39:52.352Z,34.58
2023-01-19T09:42:44.474Z,50.38
2023-01-19T09:45:48.479Z,89.43
2023-01-19T09:48:45.702Z,62.40
2023-01-19T09:51:39.431Z,66.78
2023-01-19T09:54:43.004Z,67.80
2023-01-19T09:57:36.346Z,37.08
2023-01-19T10:00:25.708Z,34.17
2023-01-19T10:03:16.787Z,42.00
2023-01-19T10:06:06.106Z,45.50
2023-01-19T10:09:04.110Z,52.65
2023-01-19T10:12:19.956Z,84.45
2023-01-19T10:15:34.192Z,181.02
2023-01-19T10:18:45.835Z,124.72
2023-01-19T10:21:42.109Z,247.60
2023-01-19T10:24:34.821Z,751.28
2023-01-19T10:27:27.239Z,1999.90
2023-01-19T10:30:24.559Z,1999.90
2023-01-19T10:33:15.321Z,1999.90
2023-01-19T10:36:06.986Z,1999.90
2023-01-19T10:38:53.820Z,1999.90
2023-01-19T10:41:49.179Z,1999.90
2023-01-19T10:44:37.368Z,850.03
2023-01-19T10:47:31.901Z,111.65
2023-01-19T10:50:32.205Z,59.78
2023-01-19T10:53:22.804Z,27.95
2023-01-19T10:56:37.303Z,35.13
2023-01-19T10:59:35.116Z,30.13
2023-01-19T11:02:29.352Z,40.25
2023-01-19T11:05:26.544Z,67.72
2023-01-19T11:08:28.694Z,52.08
2023-01-19T11:11:15.391Z,27.70
2023-01-19T11:14:13.029Z,17.35
2023-01-19T11:20:00.964Z,8.13
2023-01-19T11:22:48.908Z,7.32
2023-01-19T11:25:36.747Z,5.78
2023-01-19T11:28:35.043Z,5.05
2023-01-19T11:31:35.743Z,6.45
2023-01-19T11:34:33.277Z,8.18
2023-01-19T11:37:19.911Z,7.10
2023-01-19T11:40:10.575Z,8.13
2023-01-19T11:42:58.076Z,11.52
2023-01-19T11:45:46.135Z,10.40
2023-01-19T11:48:39.434Z,5.97
2023-01-19T11:51:31.615Z,5.40
2023-01-19T11:54:26.957Z,6.97
2023-01-19T11:57:17.203Z,3.45
2023-01-19T12:00:13.637Z,8.90
2023-01-19T12:03:20.570Z,8.00
2023-01-19T12:06:12.636Z,13.48
2023-01-19T12:09:09.539Z,10.77
2023-01-19T12:12:06.257Z,6.00
2023-01-19T12:15:35.925Z,4.97
2023-01-19T12:18:27.074Z,9.23
2023-01-19T12:21:14.534Z,5.72
2023-01-19T12:24:24.894Z,9.63
2023-01-19T12:30:45.327Z,11.98
2023-01-19T12:33:39.930Z,18.58
2023-01-19T12:36:26.739Z,12.40
2023-01-19T12:39:22.463Z,21.63
2023-01-19T12:42:16.893Z,13.63
2023-01-19T12:45:13.531Z,20.58
2023-01-19T12:48:01.930Z,17.38
2023-01-19T12:50:49.644Z,19.88
2023-01-19T12:56:32.827Z,17.65
2023-01-19T12:59:26.539Z,20.27
2023-01-19T13:02:28.360Z,14.30
2023-01-19T13:05:38.468Z,16.58
2023-01-19T13:08:46.971Z,22.90
2023-01-19T13:11:34.787Z,25.55
2023-01-19T13:14:36.499Z,29.27
2023-01-19T13:17:33.734Z,31.40
2023-01-19T13:20:25.042Z,31.20
2023-01-19T13:23:21.782Z,33.65
2023-01-19T13:26:15.549Z,43.83
2023-01-19T13:29:14.489Z,37.38
2023-01-19T13:32:13.562Z,40.53
2023-01-19T13:35:02.195Z,39.50
2023-01-19T13:37:50.196Z,43.50
2023-01-19T13:43:32.185Z,37.80
2023-01-19T13:46:19.394Z,39.63
2023-01-19T13:49:26.128Z,34.53
2023-01-19T13:52:31.258Z,34.17
2023-01-19T13:55:20.170Z,37.30
2023-01-19T13:58:20.814Z,37.17
2023-01-19T14:01:20.369Z,39.33
2023-01-19T14:04:31.825Z,38.47
2023-01-19T14:07:27.080Z,42.30
2023-01-19T14:10:16.736Z,42.42
2023-01-19T14:13:14.140Z,45.58
2023-01-19T14:16:06.655Z,42.13
2023-01-19T14:19:05.496Z,55.92
2023-01-19T14:22:04.049Z,41.30
2023-01-19T14:24:50.857Z,52.13
2023-01-19T14:27:37.558Z,43.17
2023-01-19T14:30:30.236Z,42.75
2023-01-19T14:33:45.313Z,41.95
2023-01-19T14:36:41.988Z,43.78
2023-01-19T14:39:36.033Z,45.15
2023-01-19T14:42:28.703Z,48.58
2023-01-19T14:45:22.129Z,39.70
2023-01-19T14:48:20.564Z,43.80
2023-01-19T14:51:07.720Z,41.92
2023-01-19T14:53:58.813Z,40.40
2023-01-19T14:56:45.727Z,43.92
2023-01-19T14:59:32.766Z,41.83
2023-01-19T15:02:19.782Z,44.63
2023-01-19T15:05:09.504Z,51.57
2023-01-19T15:07:56.283Z,44.55
2023-01-19T15:10:44.042Z,41.88
2023-01-19T15:16:18.994Z,44.72
2023-01-19T15:19:05.842Z,40.80
2023-01-19T15:21:52.814Z,38.90
2023-01-19T15:24:40.887Z,40.97
2023-01-19T15:27:28.698Z,38.40
2023-01-19T15:33:08.960Z,38.15
2023-01-19T15:35:55.680Z,38.30
2023-01-19T15:38:43.719Z,34.95
2023-01-19T15:41:30.894Z,36.47
2023-01-19T15:44:17.624Z,35.10
2023-01-19T15:47:04.353Z,36.75
2023-01-19T15:49:51.992Z,35.97
2023-01-19T15:52:38.887Z,38.22
2023-01-19T15:55:25.861Z,31.53
2023-01-19T15:58:14.029Z,31.63
2023-01-19T16:01:01.006Z,38.40
2023-01-19T16:03:48.263Z,37.75
2023-01-19T16:06:35.260Z,36.92
2023-01-19T16:09:22.315Z,38.33
2023-01-19T16:12:09.059Z,42.15
2023-01-19T16:14:55.755Z,44.80
2023-01-19T16:17:42.912Z,40.95
2023-01-19T16:20:29.620Z,45.13
2023-01-19T16:23:16.345Z,62.28
2023-01-19T16:26:09.387Z,78.55
2023-01-19T16:29:01.241Z,69.47
2023-01-19T16:31:47.993Z,65.63
2023-01-19T16:34:34.804Z,76.60
2023-01-19T16:37:21.475Z,84.00
2023-01-19T16:40:09.299Z,65.90
2023-01-19T16:42:56.242Z,58.97
2023-01-19T16:46:00.756Z,49.35
2023-01-19T16:48:47.545Z,46.35
2023-01-19T16:51:34.469Z,47.47
2023-01-19T16:54:23.409Z,52.67
2023-01-19T16:57:10.955Z,49.92
2023-01-19T16:59:57.657Z,57.30
2023-01-19T17:02:44.418Z,52.55
2023-01-19T17:05:31.180Z,49.73
2023-01-19T17:08:19.700Z,48.27
2023-01-19T17:11:20.532Z,48.15
2023-01-19T17:14:21.225Z,47.22
2023-01-19T17:17:09.397Z,45.90
2023-01-19T17:19:56.155Z,46.17
2023-01-19T17:22:42.969Z,42.17
2023-01-19T17:25:30.635Z,44.77
2023-01-19T17:31:10.931Z,44.13
2023-01-19T17:33:58.827Z,45.20
2023-01-19T17:36:45.607Z,43.33
2023-01-19T17:39:32.512Z,41.77
2023-01-19T17:42:19.287Z,49.40
2023-01-19T17:45:06.699Z,45.17
2023-01-19T17:47:53.662Z,49.15
2023-01-19T17:50:40.381Z,46.45
2023-01-19T17:53:27.213Z,44.05
2023-01-19T17:56:21.366Z,60.43
2023-01-19T17:59:08.432Z,55.22
2023-01-19T18:01:55.209Z,45.75
2023-01-19T18:04:42.040Z,49.43
2023-01-19T18:07:29.871Z,41.57
2023-01-19T18:10:42.530Z,43.97
2023-01-19T18:13:35.628Z,52.30
2023-01-19T18:16:29.039Z,51.63
2023-01-19T18:19:21.845Z,50.03
2023-01-19T18:22:11.978Z,63.10
2023-01-19T18:25:14.883Z,63.63
2023-01-19T18:31:56.872Z,62.40
2023-01-19T18:34:59.568Z,57.88
2023-01-19T18:37:59.328Z,57.58
2023-01-19T18:40:51.665Z,56.17
2023-01-19T18:43:56.930Z,50.25
2023-01-19T18:47:02.752Z,48.22
2023-01-19T18:49:59.602Z,55.67
2023-01-19T18:56:27.633Z,55.78
2023-01-19T18:59:37.511Z,52.05
2023-01-19T19:03:12.309Z,54.67
2023-01-19T19:09:27.813Z,53.42
2023-01-19T19:12:53.996Z,53.70
2023-01-19T19:15:58.596Z,50.72
2023-01-19T19:18:56.326Z,55.78
2023-01-19T19:22:13.416Z,56.28
2023-01-19T19:25:13.807Z,50.28
2023-01-19T19:28:05.015Z,51.70
2023-01-19T19:31:07.786Z,48.17
2023-01-19T19:34:09.641Z,51.75
2023-01-19T19:37:32.109Z,47.15
2023-01-19T19:40:28.433Z,41.28
2023-01-19T19:43:27.501Z,43.08
2023-01-19T19:46:37.700Z,44.88
2023-01-19T19:49:31.123Z,48.70
2023-01-19T19:52:22.906Z,45.13
2023-01-19T19:55:26.978Z,50.75
2023-01-19T19:58:55.154Z,48.72
2023-01-19T20:02:07.649Z,49.33
2023-01-19T20:04:58.465Z,45.15
2023-01-19T20:07:57.046Z,52.95
2023-01-19T20:11:14.291Z,47.42
2023-01-19T20:14:26.101Z,44.50
2023-01-19T20:17:51.699Z,44.88
2023-01-19T20:20:47.220Z,47.78
2023-01-19T20:24:13.601Z,51.47
2023-01-19T20:27:02.763Z,53.00
2023-01-19T20:30:05.831Z,52.65
2023-01-19T20:33:03.510Z,45.00
2023-01-19T20:36:16.992Z,45.92
2023-01-19T20:39:29.283Z,48.30
2023-01-19T20:42:29.160Z,52.33
2023-01-19T20:45:43.769Z,46.28
2023-01-19T20:48:36.640Z,55.85
2023-01-19T20:51:51.714Z,53.60
2023-01-19T20:55:05.892Z,61.92
2023-01-19T21:01:22.807Z,52.65
2023-01-19T21:04:26.955Z,51.97
2023-01-19T21:10:54.904Z,59.00
2023-01-19T21:14:02.658Z,48.30
2023-01-19T21:17:03.653Z,53.42
2023-01-19T21:23:11.173Z,50.15
2023-01-19T21:26:13.053Z,53.45
2023-01-19T21:29:18.229Z,54.55
2023-01-19T21:32:23.571Z,50.85
2023-01-19T21:35:32.858Z,53.35
2023-01-19T21:38:30.010Z,53.25
2023-01-19T21:41:27.317Z,55.72
2023-01-19T21:44:34.962Z,56.72
2023-01-19T21:47:49.664Z,57.88
2023-01-19T21:54:42.646Z,54.45
2023-01-19T21:57:29.476Z,55.15
2023-01-19T22:00:16.850Z,59.45
2023-01-19T22:03:04.728Z,56.25
2023-01-19T22:05:52.570Z,56.08
2023-01-19T22:08:39.961Z,53.75
2023-01-19T22:11:27.579Z,61.63
2023-01-19T22:14:14.292Z,56.63
2023-01-19T22:17:01.862Z,55.03
2023-01-19T22:19:48.856Z,56.92
2023-01-19T22:22:35.643Z,57.05
2023-01-19T22:25:27.463Z,59.60
2023-01-19T22:28:15.108Z,53.50
2023-01-19T22:31:16.014Z,55.13
2023-01-19T22:37:07.816Z,62.45
2023-01-19T22:39:55.443Z,44.70
2023-01-19T22:42:48.276Z,57.53
2023-01-19T22:45:35.027Z,51.78
2023-01-19T22:48:22.375Z,56.87
2023-01-19T22:51:10.079Z,51.65
2023-01-19T22:56:43.699Z,44.75
2023-01-19T22:59:30.416Z,35.53
2023-01-19T23:02:19.806Z,43.75
2023-01-19T23:05:07.564Z,44.65
2023-01-19T23:07:54.295Z,45.20
2023-01-19T23:10:41.096Z,44.42
2023-01-19T23:13:27.896Z,41.60
2023-01-19T23:16:15.040Z,33.37
2023-01-19T23:19:02.164Z,40.88
2023-01-19T23:21:52.010Z,43.33
2023-01-19T23:24:38.988Z,40.35
2023-01-19T23:27:26.567Z,39.90
2023-01-19T23:30:13.628Z,35.47
2023-01-19T23:33:00.462Z,45.40
2023-01-19T23:35:48.130Z,40.90
2023-01-19T23:38:34.864Z,44.55
2023-01-19T23:41:22.845Z,44.72
2023-01-19T23:44:09.692Z,41.60
2023-01-19T23:46:58.021Z,43.17
2023-01-19T23:49:44.825Z,46.25
2023-01-19T23:52:32.027Z,42.43
2023-01-19T23:55:18.784Z,38.17
2023-01-19T23:58:06.487Z,42.57
